NCAR-RAP Real-Time Weather Data

Output produced by METARs form (01 December 2020  17:39 UTC)
found at http://weather.rap.ucar.edu/surface/
 
KSDF 011656Z 28015G23KT 10SM SCT028 SCT050 02/M05 A3009 RMK AO2 SLP194 T00171050
KSDF 011556Z 28018G24KT 10SM SCT025 SCT050 SCT250 01/M06 A3010 RMK AO2 SLP197 T00061056
KSDF 011456Z 28015KT 10SM FEW020 FEW050 SCT250 M01/M06 A3008 RMK AO2 SLP191 T10061061 51019
KSDF 011356Z 27012KT 10SM FEW050 FEW200 M01/M07 A3006 RMK AO2 SLP185 T10111067
KSDF 011256Z 28011KT 10SM FEW050 M02/M07 A3004 RMK AO2 SLP178 T10221067
KSDF 011156Z 27014KT 10SM SCT050 M01/M06 A3002 RMK AO2 SLP170 60000 70014 T10111056 10000 21011 53013
KSDF 011056Z 28013KT 10SM BKN055 M01/M06 A3000 RMK AO2 SLP164 T10061056
KSDF 010956Z 29013KT 10SM FEW025 OVC060 M01/M05 A2998 RMK AO2 SLP157 T10061050
KSDF 010912Z 29012KT 10SM SCT025 OVC060 M01/M05 A2999 RMK AO2 T10061050
KSDF 010856Z 29012KT 10SM BKN025 BKN040 OVC070 M01/M04 A2998 RMK AO2 SNE36 SLP157 P0000 60000 T10061044 53011
KSDF 010836Z 28012KT 9SM BKN025 BKN040 OVC070 M01/M04 A2998 RMK AO2 SNE36 P0000 T10061044
KSDF 010814Z 28010KT 9SM -SN SCT026 OVC039 M01/M04 A2997 RMK AO2 P0000 T10061044
KSDF 010756Z 29013KT 9SM -SN BKN027 OVC040 M01/M04 A2997 RMK AO2 SLP153 P0000 T10061044
KSDF 010656Z 29013KT 9SM -SN BKN023 OVC050 M01/M04 A2996 RMK AO2 SLP149 P0000 T10061039
KSDF 010556Z 29014KT 9SM -SN OVC024 00/M04 A2995 RMK AO2 SLP146 P0000 60000 T00001039 10017 21006 50000
KSDF 010456Z 29014G18KT 5SM -SN OVC022 M01/M03 A2996 RMK AO2 SLP147 P0000 T10061033 400671006
KSDF 010356Z 28009KT 3SM -SN BKN020 OVC026 M01/M03 A2995 RMK AO2 SLP147 P0000 T10061028
KSDF 010256Z 29012KT 4SM -SN BKN022 OVC025 00/M03 A2995 RMK AO2 SLP146 P0000 60000 T00001028 51015